Time;durP1;ratioP1;P1;durP2;ratioP2;P2;SDS_P1;SDS_P2;PMS_P1;PMS_P2;Temp;Humidity;BMP_temperature;BMP_pressure;BME280_temperature;BME280_humidity;BME280_pressure;Samples;Min_cycle;Max_cycle;Signal;HPM_P1;HPM_P2
2022/07/22 00:00:25;;;;;;;;;22.50;22.50;;;;;26.50;49.57;101402.38;2118123;27;47434;-63
2022/07/22 00:01:26;;;;;;;;;22.00;22.00;;;;;26.50;49.45;101399.66;2112510;27;47083;-66
2022/07/22 00:02:26;;;;;;;;;23.75;23.75;;;;;26.49;49.55;101404.22;2102600;28;47435;-66
2022/07/22 00:03:27;;;;;;;;;25.00;22.25;;;;;26.50;49.58;101399.66;2112983;27;47773;-64
2022/07/22 00:04:27;;;;;;;;;21.75;21.75;;;;;26.50;49.65;101407.81;2108748;27;47689;-65
2022/07/22 00:05:28;;;;;;;;;19.00;19.00;;;;;26.50;49.60;101399.66;2112425;27;47520;-65
2022/07/22 00:06:29;;;;;;;;;24.25;24.25;;;;;26.51;49.23;101404.97;2119719;27;47418;-65
2022/07/22 00:07:29;;;;;;;;;22.50;22.50;;;;;26.49;48.88;101398.78;2121884;27;47375;-65
2022/07/22 00:08:29;;;;;;;;;24.00;22.50;;;;;26.47;49.09;101400.75;2117862;27;47509;-65
2022/07/22 00:09:30;;;;;;;;;24.75;23.75;;;;;26.46;49.74;101396.31;2122394;27;47412;-66
2022/07/22 00:10:30;;;;;;;;;24.50;24.00;;;;;26.46;49.55;101400.88;2120288;27;47911;-65
2022/07/22 00:11:31;;;;;;;;;21.00;19.75;;;;;26.44;49.47;101400.16;2122427;27;47249;-65
2022/07/22 00:12:31;;;;;;;;;25.50;25.00;;;;;26.44;49.13;101397.41;2119829;27;47452;-65
2022/07/22 00:13:32;;;;;;;;;23.50;22.25;;;;;26.42;49.03;101393.94;2122220;27;47475;-65
2022/07/22 00:14:32;;;;;;;;;23.00;20.25;;;;;26.42;49.11;101394.78;2119738;27;47663;-65
2022/07/22 00:15:33;;;;;;;;;21.00;21.00;;;;;26.40;49.21;101396.78;2103868;28;46437;-66
2022/07/22 00:16:33;;;;;;;;;22.25;22.00;;;;;26.40;49.59;101402.22;2103802;27;48389;-66
2022/07/22 00:17:36;;;;;;;;;23.75;23.50;;;;;26.37;49.01;101400.59;2122247;27;46366;-64
2022/07/22 00:18:36;;;;;;;;;21.40;21.00;;;;;26.37;49.18;101392.44;2120173;27;47965;-65
2022/07/22 00:19:37;;;;;;;;;22.25;21.50;;;;;26.38;49.76;101398.75;2122597;27;47480;-65
2022/07/22 00:20:37;;;;;;;;;20.25;20.25;;;;;26.36;49.18;101398.88;2120615;27;47574;-67
2022/07/22 00:21:38;;;;;;;;;22.50;19.75;;;;;26.37;49.39;101389.72;2120782;27;47598;-65
2022/07/22 00:22:38;;;;;;;;;22.50;22.50;;;;;26.36;49.15;101400.72;2119704;27;47135;-67
2022/07/22 00:23:39;;;;;;;;;18.25;18.25;;;;;26.35;49.54;101397.09;2122305;27;47553;-63
2022/07/22 00:24:39;;;;;;;;;25.25;22.50;;;;;26.33;49.05;101388.19;2120102;27;47165;-66
2022/07/22 00:25:39;;;;;;;;;20.25;19.25;;;;;26.33;49.66;101390.06;2122356;27;47031;-64
2022/07/22 00:26:40;;;;;;;;;19.75;19.75;;;;;26.32;49.82;101391.03;2120188;27;47609;-65
2022/07/22 00:27:40;;;;;;;;;23.00;21.25;;;;;26.30;49.90;101391.16;2126377;27;47893;-66
2022/07/22 00:28:40;;;;;;;;;19.00;19.00;;;;;26.31;49.49;101389.31;2118734;27;45625;-65
2022/07/22 00:29:41;;;;;;;;;20.75;20.75;;;;;26.31;49.75;101392.91;2117977;27;47885;-65
2022/07/22 00:30:41;;;;;;;;;19.00;19.00;;;;;26.31;49.89;101392.03;2116439;27;47491;-67
2022/07/22 00:31:42;;;;;;;;;21.50;18.25;;;;;26.30;49.65;101380.28;2119602;27;47145;-66
2022/07/22 00:32:42;;;;;;;;;19.25;19.25;;;;;26.29;48.99;101383.94;2118417;27;47870;-67
2022/07/22 00:33:43;;;;;;;;;19.75;19.00;;;;;26.28;49.13;101384.94;2116468;27;47609;-64
2022/07/22 00:34:43;;;;;;;;;19.00;18.00;;;;;26.26;49.09;101386.91;2120256;27;47744;-67
2022/07/22 00:35:43;;;;;;;;;18.25;18.25;;;;;26.25;49.17;101381.59;2112487;27;47896;-68
2022/07/22 00:36:44;;;;;;;;;20.75;20.50;;;;;26.23;49.49;101387.16;2101449;28;48105;-66
2022/07/22 00:37:44;;;;;;;;;18.25;16.50;;;;;26.22;49.77;101379.13;2112775;27;47782;-65
2022/07/22 00:38:45;;;;;;;;;18.25;18.00;;;;;26.21;49.61;101385.56;2101348;28;47854;-65
2022/07/22 00:39:47;;;;;;;;;18.25;17.75;;;;;26.20;49.19;101381.09;2103376;28;47903;-66
2022/07/22 00:40:48;;;;;;;;;18.80;18.40;;;;;26.18;49.64;101383.06;2116500;27;47998;-67
2022/07/22 00:41:49;;;;;;;;;19.00;18.00;;;;;26.17;49.56;101376.75;2112334;27;47245;-62
2022/07/22 00:42:50;;;;;;;;;15.50;15.50;;;;;26.16;49.25;101379.56;2111748;27;47915;-66
2022/07/22 00:43:58;;;;;;;;;19.60;19.60;;;;;26.15;49.87;101380.56;2121087;27;47702;-64
2022/07/22 00:44:59;;;;;;;;;17.40;17.40;;;;;26.14;49.67;101385.13;2121236;27;47554;-66
2022/07/22 00:45:59;;;;;;;;;17.00;17.00;;;;;26.14;49.26;101373.38;2120467;27;47658;-66
2022/07/22 00:47:00;;;;;;;;;20.25;19.00;;;;;26.13;49.21;101379.81;2121047;27;46796;-64
2022/07/22 00:48:01;;;;;;;;;18.00;18.00;;;;;26.13;49.45;101374.38;2119937;27;47539;-65
2022/07/22 00:49:04;;;;;;;;;18.80;18.80;;;;;26.11;49.29;101375.38;2111950;27;47314;-67
2022/07/22 00:50:06;;;;;;;;;16.20;15.00;;;;;26.11;49.80;101375.38;2111494;27;47659;-65
2022/07/22 00:51:06;;;;;;;;;19.00;17.80;;;;;26.09;49.56;101371.91;2120406;27;47424;-66
2022/07/22 00:52:07;;;;;;;;;22.25;21.25;;;;;26.10;49.88;101367.31;2116738;27;47353;-64
2022/07/22 00:53:07;;;;;;;;;20.75;20.00;;;;;26.11;49.25;101369.91;2121669;27;47577;-68
2022/07/22 00:54:08;;;;;;;;;23.25;22.25;;;;;26.10;49.91;101364.59;2120486;27;47786;-65
2022/07/22 00:55:09;;;;;;;;;20.75;20.75;;;;;26.09;49.46;101365.59;2119855;27;48113;-62
2022/07/22 00:56:10;;;;;;;;;19.00;17.75;;;;;26.07;49.82;101365.72;2120356;27;47541;-65
2022/07/22 00:57:10;;;;;;;;;13.00;13.00;;;;;26.06;49.80;101363.13;2121628;27;47613;-65
2022/07/22 00:58:11;;;;;;;;;19.50;19.00;;;;;26.06;49.84;101363.97;2119721;27;47465;-62
2022/07/22 00:59:12;;;;;;;;;17.50;17.50;;;;;26.05;49.64;101367.69;2112499;27;47359;-66
2022/07/22 01:00:18;;;;;;;;;18.40;18.40;;;;;26.05;49.95;101361.38;2109495;27;47888;-66
2022/07/22 01:01:18;;;;;;;;;19.00;18.00;;;;;26.03;49.78;101358.75;2120100;27;47542;-66
2022/07/22 01:02:19;;;;;;;;;18.00;15.75;;;;;26.01;49.42;101359.84;2119973;27;46810;-62
2022/07/22 01:03:19;;;;;;;;;15.00;14.75;;;;;25.99;49.63;101353.66;2121618;27;47776;-65
2022/07/22 01:04:20;;;;;;;;;16.00;15.25;;;;;25.98;49.75;101360.09;2119396;27;47249;-64
2022/07/22 01:05:20;;;;;;;;;16.75;16.75;;;;;25.96;50.03;101354.78;2117389;27;47355;-65
2022/07/22 01:06:21;;;;;;;;;20.75;19.75;;;;;25.95;49.93;101360.34;2109216;27;47107;-64
2022/07/22 01:07:21;;;;;;;;;17.25;17.25;;;;;25.94;49.44;101356.75;2112496;27;47150;-65
2022/07/22 01:08:22;;;;;;;;;17.50;17.50;;;;;25.94;49.80;101359.47;2119026;27;45290;-64
2022/07/22 01:09:22;;;;;;;;;18.00;17.00;;;;;25.92;49.92;101361.44;2121720;27;47495;-66
2022/07/22 01:10:23;;;;;;;;;17.25;17.00;;;;;25.91;49.69;101356.97;2119990;27;47385;-66
2022/07/22 01:11:24;;;;;;;;;14.50;14.00;;;;;25.91;49.65;101362.41;2120942;27;45012;-66
2022/07/22 01:12:24;;;;;;;;;18.40;17.40;;;;;25.90;49.88;101357.09;2119737;27;48372;-66
2022/07/22 01:13:25;;;;;;;;;14.75;14.75;;;;;25.90;49.28;101357.09;2121195;27;47741;-66
2022/07/22 01:14:25;;;;;;;;;17.00;15.75;;;;;25.90;49.64;101346.19;2118227;27;47958;-66
2022/07/22 01:15:25;;;;;;;;;18.50;16.25;;;;;25.88;49.85;101350.91;2121960;27;45626;-64
2022/07/22 01:16:26;;;;;;;;;16.50;16.25;;;;;25.86;49.64;101356.47;2120203;27;47069;-66
2022/07/22 01:17:26;;;;;;;;;15.50;14.50;;;;;25.86;49.59;101351.03;2116365;27;46950;-63
2022/07/22 01:18:27;;;;;;;;;17.75;16.75;;;;;25.84;49.76;101358.44;2101160;27;47398;-66
2022/07/22 01:19:27;;;;;;;;;14.50;14.00;;;;;25.84;49.40;101352.13;2113586;27;47998;-66
2022/07/22 01:20:28;;;;;;;;;15.50;15.50;;;;;25.82;50.00;101354.97;2110872;27;48110;-63
2022/07/22 01:21:28;;;;;;;;;16.50;15.75;;;;;25.82;50.00;101363.13;2098489;28;46646;-67
2022/07/22 01:22:31;;;;;;;;;19.75;17.50;;;;;25.80;49.42;101360.53;2108378;27;47928;-65
2022/07/22 01:23:32;;;;;;;;;18.80;18.80;;;;;25.79;49.97;101353.34;2112690;27;47898;-67
2022/07/22 01:24:32;;;;;;;;;19.00;15.75;;;;;25.79;49.69;101355.16;2110744;27;48083;-65
2022/07/22 01:25:32;;;;;;;;;16.50;15.75;;;;;25.77;49.72;101357.13;2118852;27;47589;-64
2022/07/22 01:26:33;;;;;;;;;14.50;14.50;;;;;25.76;49.58;101353.56;2119843;27;47896;-66
2022/07/22 01:27:33;;;;;;;;;12.50;12.50;;;;;25.75;49.78;101350.97;2118131;27;47359;-68
2022/07/22 01:28:34;;;;;;;;;16.75;16.00;;;;;25.73;50.09;101359.22;2119298;27;47323;-66
2022/07/22 01:29:34;;;;;;;;;15.25;15.00;;;;;25.72;49.47;101353.91;2112653;27;47272;-66
2022/07/22 01:30:35;;;;;;;;;19.00;17.75;;;;;25.71;49.89;101347.63;2110104;27;47222;-64
2022/07/22 01:31:35;;;;;;;;;18.00;16.50;;;;;25.71;49.79;101355.75;2117254;27;47360;-66
2022/07/22 01:32:36;;;;;;;;;19.25;18.00;;;;;25.71;50.06;101347.63;2118509;27;45740;-67
2022/07/22 01:33:37;;;;;;;;;14.50;14.50;;;;;25.70;50.12;101350.44;2120458;27;47435;-66
2022/07/22 01:34:37;;;;;;;;;16.80;16.00;;;;;25.68;49.63;101345.09;2118441;27;47193;-65
2022/07/22 01:35:38;;;;;;;;;16.00;15.00;;;;;25.67;49.89;101350.66;2121794;27;47530;-66
2022/07/22 01:36:38;;;;;;;;;15.25;12.00;;;;;25.64;50.13;101346.28;2120142;27;47254;-66
2022/07/22 01:37:39;;;;;;;;;14.50;13.50;;;;;25.65;49.93;101355.31;2121773;27;47288;-64
2022/07/22 01:38:39;;;;;;;;;15.25;15.25;;;;;25.62;49.87;101350.97;2110893;27;47634;-66
2022/07/22 01:39:40;;;;;;;;;19.00;15.50;;;;;25.62;49.65;101353.69;2110120;27;47973;-65
2022/07/22 01:40:41;;;;;;;;;18.25;14.50;;;;;25.62;49.68;101352.81;2120094;27;47799;-65
2022/07/22 01:41:43;;;;;;;;;17.40;16.40;;;;;25.60;49.79;101347.50;2119575;27;47740;-66
2022/07/22 01:42:44;;;;;;;;;19.00;17.40;;;;;25.60;50.06;101352.94;2114835;27;48327;-64
2022/07/22 01:43:44;;;;;;;;;16.25;16.25;;;;;25.58;49.76;101348.63;2115483;27;45004;-66
2022/07/22 01:44:44;;;;;;;;;14.00;14.00;;;;;25.57;49.75;101355.91;2109439;27;47466;-66
2022/07/22 01:45:45;;;;;;;;;13.50;13.50;;;;;25.56;49.64;101342.44;2110739;27;46601;-65
2022/07/22 01:46:45;;;;;;;;;15.00;15.00;;;;;25.55;50.26;101355.16;2092311;28;47300;-68
2022/07/22 01:47:46;;;;;;;;;15.25;15.25;;;;;25.52;49.67;101348.06;2094724;28;47186;-66
2022/07/22 01:48:46;;;;;;;;;18.00;17.75;;;;;25.51;49.60;101353.63;2118743;27;46466;-67
2022/07/22 01:49:47;;;;;;;;;15.75;15.75;;;;;25.49;49.65;101355.59;2121085;27;47243;-63
2022/07/22 01:50:48;;;;;;;;;14.75;14.75;;;;;25.47;50.00;101347.56;2120364;27;47475;-66
2022/07/22 01:51:48;;;;;;;;;13.80;13.80;;;;;25.47;49.67;101354.84;2118891;27;47732;-68
2022/07/22 01:52:49;;;;;;;;;14.00;13.25;;;;;25.45;50.10;101357.69;2120087;27;47380;-65
2022/07/22 01:53:49;;;;;;;;;17.25;15.00;;;;;25.46;50.19;101353.97;2111259;27;47719;-66
2022/07/22 01:54:49;;;;;;;;;14.50;14.50;;;;;25.45;50.30;101349.53;2104714;27;47000;-66
2022/07/22 01:55:50;;;;;;;;;13.75;13.50;;;;;25.46;49.81;101344.94;2111206;27;46569;-65
2022/07/22 01:56:50;;;;;;;;;14.25;14.25;;;;;25.46;50.34;101344.94;2117825;27;47579;-64
2022/07/22 01:57:51;;;;;;;;;14.75;13.75;;;;;25.46;50.24;101350.38;2115391;27;47702;-64
2022/07/22 01:58:51;;;;;;;;;13.50;12.50;;;;;25.45;50.07;101345.94;2121112;27;47442;-66
2022/07/22 01:59:52;;;;;;;;;15.75;15.75;;;;;25.42;50.44;101344.31;2117939;27;47443;-65
2022/07/22 02:00:53;;;;;;;;;14.00;14.00;;;;;25.41;50.19;101345.31;2121307;27;47647;-67
2022/07/22 02:01:54;;;;;;;;;13.75;13.75;;;;;25.41;50.38;101341.69;2120151;27;47466;-67
2022/07/22 02:02:54;;;;;;;;;14.60;14.60;;;;;25.40;50.20;101339.97;2117405;27;47512;-67
2022/07/22 02:03:54;;;;;;;;;16.50;15.50;;;;;25.38;49.83;101345.50;2120223;27;47320;-63
2022/07/22 02:04:55;;;;;;;;;15.75;15.75;;;;;25.38;50.02;101339.22;2121077;27;47415;-64
2022/07/22 02:05:55;;;;;;;;;12.75;12.75;;;;;25.37;50.00;101341.06;2120126;27;47550;-65
2022/07/22 02:06:56;;;;;;;;;17.50;15.50;;;;;25.36;50.03;101330.31;2120979;27;47751;-64
2022/07/22 02:08:04;;;;;;;;;18.50;17.75;;;;;25.34;50.04;101335.84;2115787;27;47456;-65
2022/07/22 02:09:05;;;;;;;;;16.00;14.60;;;;;25.33;50.38;101339.56;2118141;27;47800;-66
2022/07/22 02:10:06;;;;;;;;;15.50;14.00;;;;;25.31;49.91;101327.94;2119995;27;47747;-67
2022/07/22 02:11:07;;;;;;;;;15.00;15.00;;;;;25.32;50.02;101339.69;2121337;27;47926;-66
2022/07/22 02:12:08;;;;;;;;;14.25;14.25;;;;;25.32;49.84;101337.81;2119392;27;47600;-66
2022/07/22 02:13:08;;;;;;;;;12.75;12.25;;;;;25.30;49.92;101339.78;2118816;27;45914;-65
2022/07/22 02:14:09;;;;;;;;;14.50;14.50;;;;;25.31;50.06;101338.81;2117955;27;47274;-65
2022/07/22 02:15:10;;;;;;;;;14.50;13.25;;;;;25.31;50.41;101336.09;2121222;27;47466;-66
2022/07/22 02:16:10;;;;;;;;;15.60;14.80;;;;;25.29;49.90;101332.63;2120350;27;48189;-63
2022/07/22 02:17:11;;;;;;;;;16.00;16.00;;;;;25.29;50.06;101340.78;2113298;27;48212;-66
2022/07/22 02:18:15;;;;;;;;;13.20;13.20;;;;;25.28;50.20;101335.44;2115886;27;47318;-65
2022/07/22 02:19:15;;;;;;;;;15.40;14.00;;;;;25.29;49.86;101348.06;2119529;27;47303;-66
2022/07/22 02:20:15;;;;;;;;;16.00;15.00;;;;;25.27;50.14;101340.00;2100505;28;47726;-66
2022/07/22 02:21:17;;;;;;;;;16.50;16.00;;;;;25.26;50.26;101334.69;2103229;28;47474;-65
2022/07/22 02:22:17;;;;;;;;;14.20;13.00;;;;;25.24;50.19;101342.94;2119624;27;47670;-66
2022/07/22 02:23:18;;;;;;;;;14.75;14.75;;;;;25.23;50.21;101341.22;2120986;27;47646;-64
2022/07/22 02:24:19;;;;;;;;;18.00;14.00;;;;;25.23;50.39;101338.50;2119513;27;47443;-66
2022/07/22 02:25:19;;;;;;;;;14.75;14.50;;;;;25.23;50.25;101341.22;2120537;27;47169;-66
2022/07/22 02:26:19;;;;;;;;;15.00;14.00;;;;;25.22;50.14;101340.34;2119745;27;48117;-66
2022/07/22 02:27:20;;;;;;;;;17.75;16.50;;;;;25.21;50.49;101335.88;2112399;27;47175;-65
2022/07/22 02:28:20;;;;;;;;;12.50;12.50;;;;;25.20;49.95;101341.44;2109494;27;47548;-66
2022/07/22 02:29:21;;;;;;;;;14.00;14.00;;;;;25.19;50.38;101339.72;2121514;27;47725;-64
2022/07/22 02:30:21;;;;;;;;;16.25;14.50;;;;;25.18;49.95;101338.84;2119464;27;47762;-67
2022/07/22 02:31:22;;;;;;;;;12.75;11.50;;;;;25.17;50.01;101333.53;2120435;27;47693;-66
2022/07/22 02:32:23;;;;;;;;;16.20;16.20;;;;;25.16;50.13;101343.53;2119078;27;47014;-63
2022/07/22 02:33:23;;;;;;;;;15.75;15.00;;;;;25.16;50.11;101342.66;2118600;27;46410;-66
2022/07/22 02:34:24;;;;;;;;;10.75;10.75;;;;;25.15;49.99;101339.03;2119517;27;47575;-63
2022/07/22 02:35:24;;;;;;;;;14.75;14.75;;;;;25.11;50.00;101342.97;2120564;27;47248;-66
2022/07/22 02:36:25;;;;;;;;;15.00;14.50;;;;;25.10;50.09;101343.09;2114845;27;47538;-64
2022/07/22 02:37:25;;;;;;;;;12.50;12.50;;;;;25.09;50.03;101338.63;2112909;27;47814;-65
2022/07/22 02:38:26;;;;;;;;;14.25;13.25;;;;;25.09;50.64;101341.34;2119097;27;45823;-64
2022/07/22 02:39:26;;;;;;;;;12.50;12.50;;;;;25.08;50.75;101345.06;2119854;27;47323;-66
2022/07/22 02:40:27;;;;;;;;;13.50;13.50;;;;;25.07;49.93;101346.03;2119451;27;47700;-66
2022/07/22 02:41:27;;;;;;;;;15.25;14.00;;;;;25.06;50.53;101347.00;2117177;27;47802;-67
2022/07/22 02:42:27;;;;;;;;;15.25;15.25;;;;;25.06;50.71;101341.59;2118673;27;47755;-65
2022/07/22 02:43:28;;;;;;;;;15.00;15.00;;;;;25.06;50.85;101344.28;2113783;27;47935;-66
2022/07/22 02:44:28;;;;;;;;;18.00;13.75;;;;;25.06;50.44;101341.59;2102845;27;47495;-62
2022/07/22 02:45:29;;;;;;;;;13.25;12.50;;;;;25.05;50.68;101340.72;2111478;27;48006;-65
2022/07/22 02:46:29;;;;;;;;;16.00;15.50;;;;;25.06;50.78;101341.59;2119473;27;47019;-66
2022/07/22 02:47:30;;;;;;;;;15.25;15.25;;;;;25.06;50.13;101347.00;2120388;27;47794;-64
2022/07/22 02:48:30;;;;;;;;;13.00;13.00;;;;;25.07;50.65;101341.47;2118991;27;47374;-65
2022/07/22 02:49:31;;;;;;;;;13.50;13.50;;;;;25.06;50.70;101339.72;2121557;27;47133;-64
2022/07/22 02:50:32;;;;;;;;;14.75;14.00;;;;;25.06;50.22;101345.16;2119479;27;47574;-65
2022/07/22 02:51:33;;;;;;;;;14.40;13.80;;;;;25.07;50.42;101341.47;2119221;27;46907;-66
2022/07/22 02:52:33;;;;;;;;;11.50;11.50;;;;;25.06;50.70;101331.59;2119240;27;47565;-65
2022/07/22 02:53:34;;;;;;;;;14.75;14.75;;;;;25.07;50.68;101337.88;2121416;27;47834;-64
2022/07/22 02:54:34;;;;;;;;;12.75;12.75;;;;;25.06;50.47;101331.59;2119137;27;47761;-67
2022/07/22 02:55:34;;;;;;;;;11.75;11.75;;;;;25.07;50.49;101343.31;2112547;27;45740;-66
2022/07/22 02:56:35;;;;;;;;;14.25;14.25;;;;;25.03;50.31;101339.97;2106227;27;47876;-66
2022/07/22 02:57:36;;;;;;;;;15.50;15.50;;;;;25.03;50.52;101336.34;2115779;27;47753;-67
2022/07/22 02:58:36;;;;;;;;;13.60;13.40;;;;;25.02;50.22;101337.34;2104549;27;47381;-67
2022/07/22 02:59:37;;;;;;;;;13.00;12.00;;;;;25.01;50.13;101339.19;2111924;27;47543;-66
2022/07/22 03:00:37;;;;;;;;;14.50;13.50;;;;;25.00;50.57;101340.13;2117679;27;47096;-67
2022/07/22 03:01:38;;;;;;;;;14.00;14.00;;;;;25.01;50.32;101336.47;2121406;27;47824;-64
2022/07/22 03:02:39;;;;;;;;;15.75;15.75;;;;;25.01;50.23;101328.31;2119728;27;47299;-67
2022/07/22 03:03:39;;;;;;;;;12.60;12.60;;;;;25.01;50.58;101333.75;2121198;27;47229;-67
2022/07/22 03:04:39;;;;;;;;;16.75;14.25;;;;;25.01;50.62;101333.75;2118894;27;47838;-65
2022/07/22 03:05:40;;;;;;;;;13.00;11.75;;;;;25.01;50.72;101338.31;2121176;27;47586;-65
2022/07/22 03:06:40;;;;;;;;;14.00;13.50;;;;;25.00;50.51;101339.25;2119065;27;47381;-67
2022/07/22 03:07:41;;;;;;;;;18.75;18.75;;;;;24.99;50.28;101329.38;2121400;27;47227;-64
2022/07/22 03:08:41;;;;;;;;;12.50;12.00;;;;;24.97;50.10;101331.34;2117741;27;47925;-67
2022/07/22 03:09:41;;;;;;;;;11.25;10.50;;;;;24.96;50.28;101333.19;2115892;27;47514;-67
2022/07/22 03:10:42;;;;;;;;;12.00;12.00;;;;;24.96;50.10;101327.75;2110065;27;46830;-66
2022/07/22 03:11:42;;;;;;;;;16.25;13.75;;;;;24.95;50.34;101323.31;2112402;27;46847;-69
2022/07/22 03:12:43;;;;;;;;;13.00;13.00;;;;;24.94;50.46;101325.16;2119220;27;47234;-69
2022/07/22 03:13:43;;;;;;;;;17.00;16.75;;;;;24.94;50.19;101324.28;2121246;27;47919;-70
2022/07/22 03:14:44;;;;;;;;;16.00;15.75;;;;;24.95;50.54;101328.75;2119616;27;47456;-67
2022/07/22 03:15:44;;;;;;;;;13.50;13.50;;;;;24.94;50.24;101333.31;2121315;27;47710;-70
2022/07/22 03:16:45;;;;;;;;;11.25;11.25;;;;;24.94;50.18;101321.56;2119862;27;48264;-67
2022/07/22 03:17:45;;;;;;;;;13.75;12.25;;;;;24.92;50.59;101323.53;2110335;27;47945;-69
2022/07/22 03:18:45;;;;;;;;;12.50;12.50;;;;;24.92;50.04;101327.13;2109919;27;47295;-69
2022/07/22 03:19:46;;;;;;;;;16.75;15.00;;;;;24.92;50.35;101324.41;2112174;27;47276;-67
2022/07/22 03:20:46;;;;;;;;;14.25;14.25;;;;;24.92;50.52;101316.25;2097718;28;47586;-64
2022/07/22 03:21:47;;;;;;;;;15.00;13.50;;;;;24.92;50.45;101324.41;2110838;27;47120;-64
2022/07/22 03:22:47;;;;;;;;;14.25;14.25;;;;;24.92;50.10;101320.81;2120080;27;47381;-67
2022/07/22 03:23:53;;;;;;;;;12.25;12.25;;;;;24.92;50.52;101320.81;2095828;28;47748;-65
2022/07/22 03:24:53;;;;;;;;;13.00;12.60;;;;;24.91;50.46;101322.66;2101639;27;47459;-67
2022/07/22 03:25:55;;;;;;;;;15.50;15.25;;;;;24.91;50.35;101321.81;2112230;27;47455;-65
2022/07/22 03:26:56;;;;;;;;;13.60;13.60;;;;;24.89;50.48;101321.88;2120067;27;47935;-67
2022/07/22 03:27:57;;;;;;;;;14.00;13.25;;;;;24.88;50.19;101325.59;2119665;27;47531;-65
2022/07/22 03:28:57;;;;;;;;;14.50;13.50;;;;;24.87;50.36;101323.84;2120593;27;47322;-64
2022/07/22 03:29:57;;;;;;;;;13.75;13.75;;;;;24.86;50.11;101323.97;2110614;27;45991;-63
2022/07/22 03:30:58;;;;;;;;;14.00;13.00;;;;;24.85;50.22;101323.09;2110850;27;47278;-67
2022/07/22 03:31:58;;;;;;;;;15.75;15.00;;;;;24.84;50.33;101321.38;2109091;27;47299;-66
2022/07/22 03:32:59;;;;;;;;;11.75;11.75;;;;;24.83;50.30;101327.78;2111697;27;45120;-63
2022/07/22 03:34:00;;;;;;;;;14.50;13.25;;;;;24.82;50.78;101323.31;2119699;27;47679;-64
2022/07/22 03:35:01;;;;;;;;;16.60;14.40;;;;;24.83;50.72;101321.47;2118336;27;47787;-67
2022/07/22 03:36:01;;;;;;;;;14.50;13.75;;;;;24.83;50.21;101321.47;2109677;27;48223;-64
2022/07/22 03:37:02;;;;;;;;;14.50;13.50;;;;;24.83;50.31;101330.50;2104015;27;47529;-65
2022/07/22 03:38:03;;;;;;;;;16.50;13.25;;;;;24.83;50.32;101327.78;2115057;27;47267;-66
2022/07/22 03:39:03;;;;;;;;;15.00;14.80;;;;;24.83;50.73;101325.06;2120817;27;47279;-64
2022/07/22 03:40:04;;;;;;;;;14.00;14.00;;;;;24.83;50.28;101327.78;2118779;27;46326;-64
2022/07/22 03:41:05;;;;;;;;;15.40;15.20;;;;;24.84;50.25;101326.78;2119550;27;47786;-62
2022/07/22 03:42:05;;;;;;;;;14.50;12.25;;;;;24.84;50.25;101324.06;2119034;27;45968;-64
2022/07/22 03:43:05;;;;;;;;;13.50;12.25;;;;;24.85;49.96;101325.81;2118062;27;47228;-65
2022/07/22 03:44:06;;;;;;;;;14.25;12.75;;;;;24.84;50.24;101325.94;2119686;27;47484;-65
2022/07/22 03:45:07;;;;;;;;;19.25;17.50;;;;;24.84;50.31;101324.06;2120824;27;47757;-66
2022/07/22 03:46:07;;;;;;;;;13.40;13.40;;;;;24.84;49.96;101315.94;2101578;27;47506;-64
2022/07/22 03:47:08;;;;;;;;;13.50;13.50;;;;;24.84;50.62;101326.78;2102738;28;46738;-65
2022/07/22 03:48:08;;;;;;;;;14.25;13.75;;;;;24.84;50.06;101325.94;2114631;27;47458;-66
2022/07/22 03:49:09;;;;;;;;;11.50;11.25;;;;;24.84;50.19;101328.66;2117473;27;46852;-65
2022/07/22 03:50:09;;;;;;;;;12.50;12.25;;;;;24.83;50.17;101332.34;2108882;27;47495;-66
2022/07/22 03:51:09;;;;;;;;;12.25;12.25;;;;;24.84;50.51;101324.06;2099971;28;47806;-63
2022/07/22 03:52:10;;;;;;;;;17.50;17.25;;;;;24.84;50.57;101326.78;2105202;27;47467;-66
2022/07/22 03:53:10;;;;;;;;;13.25;13.25;;;;;24.83;49.95;101324.19;2120781;27;47474;-66
2022/07/22 03:54:11;;;;;;;;;13.75;13.00;;;;;24.83;50.48;101326.91;2118615;27;47595;-65
2022/07/22 03:55:11;;;;;;;;;13.25;13.25;;;;;24.82;50.34;101325.19;2117611;27;47964;-67
2022/07/22 03:56:12;;;;;;;;;12.50;12.50;;;;;24.82;50.21;101325.19;2119024;27;47362;-61
2022/07/22 03:57:12;;;;;;;;;13.50;13.50;;;;;24.80;50.13;101322.56;2120657;27;47894;-64
2022/07/22 03:58:12;;;;;;;;;12.50;12.50;;;;;24.80;50.04;101319.84;2101509;28;47508;-63
2022/07/22 03:59:13;;;;;;;;;13.50;12.25;;;;;24.79;50.32;101320.84;2102469;28;47483;-65
2022/07/22 04:00:13;;;;;;;;;12.50;12.50;;;;;24.78;50.06;101321.81;2119547;27;48148;-66
2022/07/22 04:01:14;;;;;;;;;12.25;12.25;;;;;24.77;50.39;101322.78;2120930;27;47055;-66
2022/07/22 04:02:14;;;;;;;;;15.00;13.25;;;;;24.76;50.13;101318.31;2114325;27;47883;-67
2022/07/22 04:03:15;;;;;;;;;13.50;12.75;;;;;24.75;50.40;101323.88;2118844;27;47276;-66
2022/07/22 04:04:15;;;;;;;;;12.00;12.00;;;;;24.74;50.65;101317.56;2119320;27;47333;-65
2022/07/22 04:05:16;;;;;;;;;13.00;13.00;;;;;24.75;50.45;101316.59;2087620;28;47955;-62
2022/07/22 04:06:16;;;;;;;;;13.75;13.00;;;;;24.74;50.52;101313.97;2087704;28;46121;-65
2022/07/22 04:07:17;;;;;;;;;14.50;14.50;;;;;24.74;50.40;101317.56;2120711;27;48074;-65
2022/07/22 04:08:18;;;;;;;;;13.00;12.75;;;;;24.74;50.03;101322.13;2119376;27;47594;-66
2022/07/22 04:09:18;;;;;;;;;14.75;13.50;;;;;24.72;50.17;101314.09;2121880;27;47655;-65
2022/07/22 04:10:19;;;;;;;;;16.50;13.50;;;;;24.71;50.15;101322.34;2120119;27;47463;-65
2022/07/22 04:11:19;;;;;;;;;13.25;13.25;;;;;24.71;50.43;101319.63;2122173;27;47585;-67
2022/07/22 04:12:20;;;;;;;;;14.00;13.00;;;;;24.70;50.32;101318.78;2121003;27;47486;-65
2022/07/22 04:13:20;;;;;;;;;11.75;11.75;;;;;24.70;50.35;101320.63;2122093;27;47913;-67
2022/07/22 04:14:20;;;;;;;;;13.00;12.00;;;;;24.69;50.77;101313.47;2120995;27;46517;-67
2022/07/22 04:15:21;;;;;;;;;14.50;14.25;;;;;24.69;50.63;101317.03;2112994;27;47804;-66
2022/07/22 04:16:21;;;;;;;;;9.50;9.50;;;;;24.69;50.19;101314.31;2107278;27;47646;-67
2022/07/22 04:17:22;;;;;;;;;14.00;13.75;;;;;24.69;49.87;101311.59;2106654;27;47827;-63
2022/07/22 04:18:22;;;;;;;;;15.75;14.75;;;;;24.67;50.13;101310.84;2117582;27;47385;-66
2022/07/22 04:19:23;;;;;;;;;13.75;12.00;;;;;24.65;50.25;101313.69;2114650;27;46930;-63
2022/07/22 04:20:23;;;;;;;;;12.00;11.75;;;;;24.66;50.30;101319.97;2117253;27;47744;-66
2022/07/22 04:21:23;;;;;;;;;16.00;14.25;;;;;24.64;50.36;101314.63;2095284;28;47578;-65
2022/07/22 04:22:24;;;;;;;;;13.50;13.50;;;;;24.63;50.45;101314.75;2094432;28;47591;-66
2022/07/22 04:23:24;;;;;;;;;14.50;14.50;;;;;24.62;50.71;101315.72;2121878;27;47536;-66
2022/07/22 04:24:25;;;;;;;;;14.00;14.00;;;;;24.62;50.40;101322.03;2108367;27;47199;-64
2022/07/22 04:25:25;;;;;;;;;17.50;14.25;;;;;24.61;50.77;101309.44;2112316;27;47272;-66
2022/07/22 04:26:26;;;;;;;;;12.25;11.75;;;;;24.61;50.69;101314.00;2117095;27;47553;-64
2022/07/22 04:27:26;;;;;;;;;11.50;11.50;;;;;24.61;50.62;101314.00;2113833;27;47691;-66
2022/07/22 04:28:26;;;;;;;;;12.75;12.75;;;;;24.60;50.15;101312.25;2118098;27;47367;-65
2022/07/22 04:29:27;;;;;;;;;15.75;15.00;;;;;24.60;50.79;101312.25;2119452;27;47662;-65
2022/07/22 04:30:27;;;;;;;;;16.25;15.75;;;;;24.59;50.36;101313.25;2118175;27;47399;-66
2022/07/22 04:31:28;;;;;;;;;14.50;14.50;;;;;24.59;50.39;101313.25;2121421;27;47329;-64
2022/07/22 04:32:28;;;;;;;;;14.25;14.00;;;;;24.57;50.38;101305.22;2119220;27;47383;-65
2022/07/22 04:33:29;;;;;;;;;18.00;15.50;;;;;24.57;50.45;101298.91;2122262;27;47322;-65
2022/07/22 04:34:30;;;;;;;;;17.50;15.50;;;;;24.56;50.74;101302.59;2119783;27;47588;-65
2022/07/22 04:35:30;;;;;;;;;14.00;14.00;;;;;24.55;50.72;101309.88;2121928;27;47823;-66